Time;durP1;ratioP1;P1;durP2;ratioP2;P2;SDS_P1;SDS_P2;PMS_P1;PMS_P2;Temp;Humidity;BMP_temperature;BMP_pressure;BME280_temperature;BME280_humidity;BME280_pressure;Samples;Min_cycle;Max_cycle;Signal;HPM_P1;HPM_P2
2022/04/07 00:00:09;;;;;;;6.70;2.53;;;;;;;;;;4990999;28;20015;-69
2022/04/07 00:02:34;;;;;;;7.10;2.63;;;;;;;;;;4990245;28;20029;-73
2022/04/07 00:04:59;;;;;;;7.03;2.43;;;;;;;;;;4995474;28;20037;-69
2022/04/07 00:07:25;;;;;;;6.45;3.10;;;;;;;;;;4968491;28;20312;-70
2022/04/07 00:09:50;;;;;;;8.68;2.42;;;;;;;;;;4991891;28;20041;-76
2022/04/07 00:12:15;;;;;;;5.70;2.80;;;;;;;;;;4989065;28;20022;-71
2022/04/07 00:14:40;;;;;;;5.97;2.67;;;;;;;;;;4989745;28;20261;-71
2022/04/07 00:17:06;;;;;;;3.23;1.70;;;;;;;;;;4994846;28;20536;-69
2022/04/07 00:19:31;;;;;;;4.53;2.20;;;;;;;;;;4988848;28;20343;-69
2022/04/07 00:21:57;;;;;;;2.13;1.58;;;;;;;;;;5005154;28;20093;-71
2022/04/07 00:24:23;;;;;;;3.40;1.65;;;;;;;;;;4996922;28;20014;-72
2022/04/07 00:26:48;;;;;;;1.50;0.85;;;;;;;;;;4990776;28;20231;-71
2022/04/07 00:29:13;;;;;;;2.15;0.80;;;;;;;;;;4989937;28;20547;-71
2022/04/07 00:31:39;;;;;;;5.70;1.20;;;;;;;;;;4992898;28;20037;-71
2022/04/07 00:34:07;;;;;;;1.88;1.20;;;;;;;;;;4988161;28;20053;-71
2022/04/07 00:36:32;;;;;;;1.77;1.17;;;;;;;;;;4988881;28;20028;-71
2022/04/07 00:38:58;;;;;;;3.28;1.27;;;;;;;;;;4989896;28;20038;-75
2022/04/07 00:41:23;;;;;;;2.47;0.93;;;;;;;;;;4992589;28;20113;-72
2022/04/07 00:43:49;;;;;;;3.80;1.15;;;;;;;;;;4996708;28;20034;-70
2022/04/07 00:46:14;;;;;;;2.90;1.15;;;;;;;;;;4986298;28;20031;-69
2022/04/07 00:48:39;;;;;;;2.17;0.87;;;;;;;;;;4989347;28;20467;-71
2022/04/07 00:51:05;;;;;;;1.98;0.52;;;;;;;;;;4977223;28;20313;-71
2022/04/07 00:53:30;;;;;;;3.25;1.00;;;;;;;;;;4972220;28;20826;-70
2022/04/07 00:56:00;;;;;;;4.85;1.10;;;;;;;;;;4988592;28;20018;-69
2022/04/07 00:58:25;;;;;;;1.40;0.70;;;;;;;;;;4974291;28;20033;-68
2022/04/07 01:00:50;;;;;;;1.30;0.85;;;;;;;;;;4993789;28;20028;-70
2022/04/07 01:03:16;;;;;;;3.03;0.70;;;;;;;;;;4990856;28;20014;-71
2022/04/07 01:05:41;;;;;;;2.58;0.85;;;;;;;;;;4986374;28;20026;-70
2022/04/07 01:08:06;;;;;;;1.23;0.50;;;;;;;;;;4991034;28;20068;-70
2022/04/07 01:10:32;;;;;;;2.42;1.30;;;;;;;;;;4990563;28;20026;-70
2022/04/07 01:12:57;;;;;;;2.33;0.60;;;;;;;;;;4992387;28;20061;-69
2022/04/07 01:15:22;;;;;;;0.65;0.50;;;;;;;;;;4992369;28;20506;-70
2022/04/07 01:17:47;;;;;;;8.10;0.90;;;;;;;;;;4991321;28;20025;-70
2022/04/07 01:20:13;;;;;;;0.80;0.50;;;;;;;;;;4992944;28;20018;-70
2022/04/07 01:22:40;;;;;;;2.85;0.68;;;;;;;;;;4989574;28;20793;-70
2022/04/07 01:25:06;;;;;;;1.70;0.52;;;;;;;;;;4991803;28;20036;-68
2022/04/07 01:27:31;;;;;;;1.98;0.88;;;;;;;;;;4991725;28;20109;-70
2022/04/07 01:29:57;;;;;;;3.15;1.00;;;;;;;;;;4991945;28;20076;-70
2022/04/07 01:32:34;;;;;;;5.40;0.80;;;;;;;;;;4986965;28;20026;-71
2022/04/07 01:35:00;;;;;;;5.18;0.82;;;;;;;;;;4989616;28;20506;-70
2022/04/07 01:37:25;;;;;;;3.05;0.50;;;;;;;;;;4991133;28;20018;-70
2022/04/07 01:39:51;;;;;;;1.38;0.70;;;;;;;;;;4993083;28;20369;-70
2022/04/07 01:42:16;;;;;;;5.30;1.52;;;;;;;;;;4991296;28;20026;-71
2022/04/07 01:44:46;;;;;;;2.30;0.80;;;;;;;;;;4991533;28;20105;-70
2022/04/07 01:47:12;;;;;;;1.67;0.93;;;;;;;;;;4992424;28;20495;-69
2022/04/07 01:49:38;;;;;;;10.57;0.88;;;;;;;;;;4996981;28;20105;-71
2022/04/07 01:52:05;;;;;;;0.73;0.50;;;;;;;;;;4990028;28;20022;-71
2022/04/07 01:54:31;;;;;;;4.25;0.80;;;;;;;;;;4990611;28;20105;-70
2022/04/07 01:56:56;;;;;;;2.72;0.82;;;;;;;;;;4991847;28;20105;-69
2022/04/07 01:59:22;;;;;;;0.47;0.30;;;;;;;;;;4992376;28;20026;-73
2022/04/07 02:01:47;;;;;;;1.42;0.52;;;;;;;;;;4993936;28;20486;-70
2022/04/07 02:04:12;;;;;;;3.53;0.80;;;;;;;;;;4986641;28;20022;-70
2022/04/07 02:06:37;;;;;;;2.22;0.93;;;;;;;;;;4992480;28;20018;-70
2022/04/07 02:09:03;;;;;;;6.13;1.00;;;;;;;;;;4993065;28;20085;-71
2022/04/07 02:11:29;;;;;;;0.73;0.43;;;;;;;;;;4987558;28;20726;-69
2022/04/07 02:13:56;;;;;;;3.88;0.52;;;;;;;;;;4991791;28;20018;-70
2022/04/07 02:16:22;;;;;;;3.05;0.70;;;;;;;;;;4988941;28;20443;-71
2022/04/07 02:18:48;;;;;;;3.25;0.63;;;;;;;;;;4989825;28;20026;-71
2022/04/07 02:21:13;;;;;;;2.35;0.63;;;;;;;;;;4990716;28;20018;-71
2022/04/07 02:23:42;;;;;;;3.55;0.52;;;;;;;;;;4994149;28;20041;-70
2022/04/07 02:26:17;;;;;;;3.45;0.70;;;;;;;;;;4990497;28;20026;-71
2022/04/07 02:28:42;;;;;;;3.80;0.65;;;;;;;;;;4989078;28;20026;-71
2022/04/07 02:31:08;;;;;;;2.13;0.70;;;;;;;;;;4989249;28;20438;-70
2022/04/07 02:33:36;;;;;;;2.35;0.30;;;;;;;;;;4986456;28;20133;-70
2022/04/07 02:36:02;;;;;;;0.60;0.40;;;;;;;;;;4972101;28;20018;-70
2022/04/07 02:38:27;;;;;;;1.85;0.55;;;;;;;;;;4970305;28;20440;-72
2022/04/07 02:40:52;;;;;;;2.00;0.77;;;;;;;;;;4990032;28;20010;-70
2022/04/07 02:43:18;;;;;;;5.50;0.77;;;;;;;;;;4990865;28;20022;-70
2022/04/07 02:45:43;;;;;;;1.88;0.80;;;;;;;;;;4988271;28;20018;-69
2022/04/07 02:48:08;;;;;;;2.03;0.60;;;;;;;;;;4991468;28;20027;-70
2022/04/07 02:50:33;;;;;;;3.95;0.70;;;;;;;;;;4988730;28;20372;-69
2022/04/07 02:52:58;;;;;;;6.95;0.70;;;;;;;;;;4989447;28;20023;-70
2022/04/07 02:55:24;;;;;;;9.57;1.53;;;;;;;;;;4989427;28;20018;-70
2022/04/07 02:57:49;;;;;;;1.13;0.60;;;;;;;;;;4987773;28;20281;-70
2022/04/07 03:00:14;;;;;;;1.35;0.40;;;;;;;;;;4989764;28;20113;-70
2022/04/07 03:02:39;;;;;;;3.88;0.60;;;;;;;;;;4986968;28;20040;-69
2022/04/07 03:05:05;;;;;;;4.70;0.40;;;;;;;;;;4989581;28;20037;-70
2022/04/07 03:07:30;;;;;;;4.40;0.57;;;;;;;;;;4990427;28;20026;-70
2022/04/07 03:09:55;;;;;;;1.85;1.05;;;;;;;;;;4989109;28;20026;-70
2022/04/07 03:12:21;;;;;;;10.43;1.33;;;;;;;;;;4988153;28;20025;-69
2022/04/07 03:14:46;;;;;;;0.73;0.40;;;;;;;;;;4990280;28;20022;-70
2022/04/07 03:17:11;;;;;;;0.80;0.30;;;;;;;;;;4985486;28;20695;-70
2022/04/07 03:19:37;;;;;;;2.22;0.65;;;;;;;;;;4991828;28;20036;-70
2022/04/07 03:22:02;;;;;;;1.88;0.28;;;;;;;;;;4993408;28;20015;-69
2022/04/07 03:24:27;;;;;;;5.43;0.82;;;;;;;;;;4992972;28;20033;-70
2022/04/07 03:26:53;;;;;;;6.70;0.57;;;;;;;;;;4986455;28;20034;-70
2022/04/07 03:29:20;;;;;;;8.10;1.38;;;;;;;;;;4989479;28;20762;-71
2022/04/07 03:31:46;;;;;;;1.65;0.70;;;;;;;;;;4990172;28;20041;-70
2022/04/07 03:34:11;;;;;;;2.83;0.90;;;;;;;;;;4989469;28;20026;-71
2022/04/07 03:36:37;;;;;;;2.50;0.68;;;;;;;;;;4970774;28;20479;-69
2022/04/07 03:39:03;;;;;;;2.30;0.77;;;;;;;;;;4989169;28;20037;-70
2022/04/07 03:41:29;;;;;;;3.30;0.50;;;;;;;;;;4985404;28;20026;-70
2022/04/07 03:43:55;;;;;;;1.73;0.40;;;;;;;;;;4986943;28;20446;-70
2022/04/07 03:46:21;;;;;;;1.88;0.52;;;;;;;;;;4985115;28;20130;-70
2022/04/07 03:48:47;;;;;;;3.58;0.73;;;;;;;;;;4989638;28;20030;-71
2022/04/07 03:51:13;;;;;;;0.50;0.30;;;;;;;;;;5005152;28;20025;-70
2022/04/07 03:53:38;;;;;;;1.93;0.60;;;;;;;;;;5004837;28;20037;-70
2022/04/07 03:56:04;;;;;;;2.00;0.50;;;;;;;;;;4995879;28;20356;-69
2022/04/07 03:58:30;;;;;;;4.30;0.50;;;;;;;;;;4993826;28;20076;-69
2022/04/07 04:00:56;;;;;;;1.95;0.40;;;;;;;;;;4991088;28;20026;-69
2022/04/07 04:03:21;;;;;;;0.75;0.35;;;;;;;;;;4995941;28;20026;-69
2022/04/07 04:05:46;;;;;;;1.48;0.40;;;;;;;;;;4993508;28;20034;-69
2022/04/07 04:08:11;;;;;;;2.10;0.50;;;;;;;;;;4991123;28;20037;-69
2022/04/07 04:10:36;;;;;;;1.77;0.60;;;;;;;;;;4993753;28;20022;-70
2022/04/07 04:13:02;;;;;;;1.40;0.45;;;;;;;;;;4992324;28;20439;-69
2022/04/07 04:15:27;;;;;;;1.02;0.50;;;;;;;;;;4993014;28;20025;-70
2022/04/07 04:17:53;;;;;;;2.55;0.70;;;;;;;;;;4991709;28;20030;-70
2022/04/07 04:20:18;;;;;;;2.73;0.30;;;;;;;;;;4993856;28;20275;-68
2022/04/07 04:22:43;;;;;;;2.10;0.50;;;;;;;;;;4994305;28;20647;-71
2022/04/07 04:27:36;;;;;;;0.85;0.60;;;;;;;;;;5010087;28;20301;-70
2022/04/07 04:30:01;;;;;;;2.70;0.60;;;;;;;;;;5015370;28;20370;-70
2022/04/07 04:32:27;;;;;;;0.57;0.30;;;;;;;;;;5011372;28;20101;-70
2022/04/07 04:34:52;;;;;;;0.13;0.13;;;;;;;;;;5012143;28;20045;-70
2022/04/07 04:37:17;;;;;;;0.40;0.30;;;;;;;;;;4995143;28;20037;-70
2022/04/07 04:39:43;;;;;;;1.60;0.33;;;;;;;;;;5011382;28;20257;-70
2022/04/07 04:42:08;;;;;;;1.10;0.50;;;;;;;;;;4994312;28;20270;-70
2022/04/07 04:44:33;;;;;;;1.80;0.38;;;;;;;;;;4981272;28;20026;-70
2022/04/07 04:46:58;;;;;;;0.60;0.33;;;;;;;;;;5000495;28;20029;-70
2022/04/07 04:49:24;;;;;;;1.48;0.30;;;;;;;;;;5006301;28;20765;-70
2022/04/07 04:51:49;;;;;;;0.95;0.20;;;;;;;;;;4997624;28;20027;-70
2022/04/07 04:54:14;;;;;;;0.32;0.32;;;;;;;;;;4992832;28;20390;-70
2022/04/07 04:56:40;;;;;;;4.03;0.35;;;;;;;;;;4999912;28;20474;-70
2022/04/07 04:59:05;;;;;;;0.75;0.47;;;;;;;;;;4999454;28;20026;-70
2022/04/07 05:01:30;;;;;;;0.22;0.20;;;;;;;;;;5000478;28;20022;-70
2022/04/07 05:03:56;;;;;;;0.40;0.30;;;;;;;;;;5002618;28;20041;-70
2022/04/07 05:06:21;;;;;;;1.10;0.38;;;;;;;;;;4993204;28;20026;-69
2022/04/07 05:08:46;;;;;;;1.37;0.57;;;;;;;;;;4995774;28;21370;-69
2022/04/07 05:11:11;;;;;;;0.47;0.40;;;;;;;;;;4992511;28;20268;-70
2022/04/07 05:13:36;;;;;;;2.83;1.13;;;;;;;;;;4997597;28;20835;-70
2022/04/07 05:16:01;;;;;;;2.27;0.30;;;;;;;;;;5000525;28;20280;-70
2022/04/07 05:18:27;;;;;;;1.27;0.40;;;;;;;;;;4996074;28;20408;-69
2022/04/07 05:20:52;;;;;;;1.23;0.30;;;;;;;;;;5000449;28;20113;-69
2022/04/07 05:23:17;;;;;;;1.40;0.37;;;;;;;;;;4990008;28;20281;-69
2022/04/07 05:25:42;;;;;;;0.93;0.32;;;;;;;;;;4994522;28;20274;-70
2022/04/07 05:28:07;;;;;;;1.15;0.68;;;;;;;;;;4999157;28;20034;-69
2022/04/07 05:30:33;;;;;;;1.02;0.40;;;;;;;;;;4992728;28;20021;-70
2022/04/07 05:32:58;;;;;;;0.50;0.28;;;;;;;;;;4996923;28;20057;-70
2022/04/07 05:35:26;;;;;;;2.58;0.85;;;;;;;;;;4996468;28;20017;-69
2022/04/07 05:37:56;;;;;;;0.55;0.40;;;;;;;;;;5002577;28;20557;-69
2022/04/07 05:40:21;;;;;;;1.00;0.45;;;;;;;;;;4998635;28;20552;-70
2022/04/07 05:42:47;;;;;;;0.90;0.43;;;;;;;;;;4991439;28;20034;-70
2022/04/07 05:45:12;;;;;;;0.30;0.30;;;;;;;;;;4987430;28;20041;-70
2022/04/07 05:47:38;;;;;;;2.93;0.83;;;;;;;;;;4989370;28;20037;-70
2022/04/07 05:50:03;;;;;;;3.08;0.90;;;;;;;;;;4993797;28;20291;-70
2022/04/07 05:52:28;;;;;;;1.20;0.63;;;;;;;;;;4994335;28;20021;-69
2022/04/07 05:54:53;;;;;;;1.20;0.40;;;;;;;;;;5003802;28;20026;-70
2022/04/07 05:57:21;;;;;;;0.87;0.50;;;;;;;;;;4988896;28;20368;-69
2022/04/07 05:59:46;;;;;;;1.08;0.28;;;;;;;;;;5010679;28;20268;-69
2022/04/07 06:02:12;;;;;;;1.20;0.77;;;;;;;;;;4991309;28;20017;-70
2022/04/07 06:04:39;;;;;;;0.40;0.27;;;;;;;;;;5009327;28;20264;-69
2022/04/07 06:07:04;;;;;;;0.55;0.30;;;;;;;;;;4990058;28;20272;-70
2022/04/07 06:09:29;;;;;;;0.10;0.10;;;;;;;;;;4993319;28;20022;-69
2022/04/07 06:11:54;;;;;;;0.30;0.30;;;;;;;;;;4991737;28;20269;-70
2022/04/07 06:14:19;;;;;;;0.40;0.40;;;;;;;;;;4994866;28;20558;-70
2022/04/07 06:16:44;;;;;;;0.57;0.30;;;;;;;;;;4997893;28;20680;-70
2022/04/07 06:19:10;;;;;;;4.33;0.60;;;;;;;;;;4983513;28;20356;-70
2022/04/07 06:21:35;;;;;;;0.67;0.33;;;;;;;;;;5004013;28;20264;-70
2022/04/07 06:24:00;;;;;;;6.63;0.60;;;;;;;;;;4996032;28;20296;-70
2022/04/07 06:26:25;;;;;;;3.17;0.70;;;;;;;;;;4990025;28;20284;-70
2022/04/07 06:28:51;;;;;;;0.82;0.50;;;;;;;;;;4985065;28;20026;-70
2022/04/07 06:31:16;;;;;;;1.20;0.43;;;;;;;;;;5005073;28;20470;-70
2022/04/07 06:33:41;;;;;;;0.47;0.40;;;;;;;;;;4997644;28;20508;-70
2022/04/07 06:36:07;;;;;;;1.08;0.60;;;;;;;;;;4998516;28;20034;-70
2022/04/07 06:38:33;;;;;;;1.58;0.80;;;;;;;;;;4990317;28;20026;-70
2022/04/07 06:40:58;;;;;;;4.18;1.40;;;;;;;;;;5003992;28;20015;-70
2022/04/07 06:43:24;;;;;;;0.60;0.50;;;;;;;;;;4981906;28;20033;-70
2022/04/07 06:45:49;;;;;;;0.32;0.30;;;;;;;;;;4998214;28;20026;-70
2022/04/07 06:48:14;;;;;;;1.27;0.57;;;;;;;;;;4987991;28;20470;-70
2022/04/07 06:50:39;;;;;;;0.90;0.30;;;;;;;;;;4997805;28;20018;-70
2022/04/07 06:53:04;;;;;;;2.20;0.70;;;;;;;;;;4993334;28;20693;-70
2022/04/07 06:55:30;;;;;;;1.02;0.50;;;;;;;;;;4998254;28;20018;-70
2022/04/07 06:58:01;;;;;;;0.75;0.52;;;;;;;;;;4994538;28;20539;-70
2022/04/07 07:00:29;;;;;;;1.92;0.85;;;;;;;;;;4999373;28;20021;-70
2022/04/07 07:02:55;;;;;;;2.35;0.60;;;;;;;;;;5001367;28;20026;-70
2022/04/07 07:05:21;;;;;;;1.38;0.50;;;;;;;;;;4994054;28;20025;-70
2022/04/07 07:07:46;;;;;;;1.85;0.82;;;;;;;;;;4995311;28;20108;-69
2022/04/07 07:10:11;;;;;;;2.83;0.50;;;;;;;;;;5007218;28;20053;-69
2022/04/07 07:12:36;;;;;;;0.63;0.43;;;;;;;;;;4998962;28;20475;-70
2022/04/07 07:15:02;;;;;;;4.73;1.00;;;;;;;;;;5001630;28;20480;-70
2022/04/07 07:17:33;;;;;;;1.00;0.60;;;;;;;;;;4996889;28;20261;-69
2022/04/07 07:20:02;;;;;;;2.83;0.80;;;;;;;;;;4986833;28;20022;-69
2022/04/07 07:22:27;;;;;;;1.38;0.50;;;;;;;;;;5000608;28;20022;-69
2022/04/07 07:24:53;;;;;;;1.98;0.88;;;;;;;;;;4986875;28;20023;-69
2022/04/07 07:27:18;;;;;;;0.75;0.30;;;;;;;;;;4998682;28;20471;-69
2022/04/07 07:29:43;;;;;;;5.60;0.47;;;;;;;;;;4997229;28;20474;-69
2022/04/07 07:32:08;;;;;;;0.33;0.30;;;;;;;;;;4996489;28;20072;-69
2022/04/07 07:34:34;;;;;;;1.07;0.30;;;;;;;;;;4991648;28;20855;-69
2022/04/07 07:36:59;;;;;;;3.28;0.25;;;;;;;;;;4984786;28;20623;-69
2022/04/07 07:39:24;;;;;;;8.88;0.82;;;;;;;;;;4995750;28;20024;-69
2022/04/07 07:41:49;;;;;;;0.20;0.20;;;;;;;;;;4998041;28;20550;-69
2022/04/07 07:44:14;;;;;;;0.63;0.20;;;;;;;;;;4993190;28;20289;-69
2022/04/07 07:46:40;;;;;;;1.90;0.40;;;;;;;;;;4969617;28;20081;-69
2022/04/07 07:49:08;;;;;;;7.10;0.60;;;;;;;;;;4994637;28;20812;-69
2022/04/07 07:51:33;;;;;;;0.50;0.30;;;;;;;;;;5006171;28;20084;-69
2022/04/07 07:53:58;;;;;;;0.75;0.20;;;;;;;;;;4994565;28;20019;-70
2022/04/07 07:56:24;;;;;;;1.00;0.28;;;;;;;;;;4994437;28;20055;-69
2022/04/07 07:58:49;;;;;;;0.63;0.30;;;;;;;;;;4998090;28;20014;-70
2022/04/07 08:01:15;;;;;;;1.05;0.30;;;;;;;;;;4988139;28;20264;-70
2022/04/07 08:03:40;;;;;;;0.90;0.30;;;;;;;;;;4987556;28;20026;-70
2022/04/07 08:06:05;;;;;;;0.20;0.20;;;;;;;;;;5000902;28;20426;-70
2022/04/07 08:08:30;;;;;;;1.63;0.35;;;;;;;;;;4999665;28;20279;-70
2022/04/07 08:10:55;;;;;;;0.25;0.13;;;;;;;;;;4991892;28;20026;-70
2022/04/07 08:13:21;;;;;;;0.60;0.30;;;;;;;;;;4992011;28;20026;-70
2022/04/07 08:15:46;;;;;;;7.13;0.40;;;;;;;;;;4996149;28;20412;-69
2022/04/07 08:18:11;;;;;;;0.65;0.20;;;;;;;;;;4997256;28;20029;-70
2022/04/07 08:20:36;;;;;;;0.20;0.20;;;;;;;;;;5001787;28;20014;-70
2022/04/07 08:23:02;;;;;;;1.02;0.20;;;;;;;;;;4999578;28;20482;-70
2022/04/07 08:25:27;;;;;;;0.52;0.20;;;;;;;;;;4998329;28;20018;-70
2022/04/07 08:27:52;;;;;;;1.25;0.57;;;;;;;;;;4995886;28;20042;-70
2022/04/07 08:30:17;;;;;;;0.60;0.30;;;;;;;;;;4995093;28;20113;-70
2022/04/07 08:32:43;;;;;;;0.35;0.20;;;;;;;;;;5000121;28;20283;-70
2022/04/07 08:35:11;;;;;;;3.75;0.30;;;;;;;;;;4999031;28;20454;-69
2022/04/07 08:37:37;;;;;;;0.20;0.20;;;;;;;;;;4996940;28;20112;-69
2022/04/07 08:40:05;;;;;;;0.57;0.20;;;;;;;;;;4997424;28;20442;-69
2022/04/07 08:42:32;;;;;;;1.75;0.50;;;;;;;;;;4980825;28;20061;-69
2022/04/07 08:44:57;;;;;;;0.32;0.20;;;;;;;;;;4989639;28;20113;-69
2022/04/07 08:47:24;;;;;;;0.98;0.28;;;;;;;;;;4998966;28;20106;-70
2022/04/07 08:49:49;;;;;;;0.10;0.10;;;;;;;;;;4999874;28;20045;-69
2022/04/07 08:52:15;;;;;;;0.22;0.15;;;;;;;;;;5001711;28;20014;-69
2022/04/07 08:54:42;;;;;;;0.80;0.30;;;;;;;;;;4993312;28;20053;-69
2022/04/07 08:57:08;;;;;;;0.30;0.20;;;;;;;;;;5000808;28;20072;-69
2022/04/07 08:59:33;;;;;;;0.50;0.20;;;;;;;;;;5000541;28;20006;-69
2022/04/07 09:02:03;;;;;;;1.73;0.10;;;;;;;;;;4992738;28;20065;-70
2022/04/07 09:04:35;;;;;;;0.30;0.20;;;;;;;;;;4996341;28;20502;-70
2022/04/07 09:07:01;;;;;;;0.30;0.10;;;;;;;;;;5004561;28;20539;-70
2022/04/07 09:09:30;;;;;;;0.73;0.38;;;;;;;;;;4995728;28;20109;-70
2022/04/07 09:11:55;;;;;;;0.75;0.20;;;;;;;;;;5000244;28;20475;-67
2022/04/07 09:14:20;;;;;;;0.47;0.20;;;;;;;;;;4995908;28;20109;-67
2022/04/07 09:16:46;;;;;;;3.65;0.35;;;;;;;;;;4993039;28;20033;-69
2022/04/07 09:19:11;;;;;;;0.00;0.00;;;;;;;;;;5000982;28;20105;-69
2022/04/07 09:21:36;;;;;;;0.47;0.30;;;;;;;;;;4994640;28;20018;-69
2022/04/07 09:24:05;;;;;;;1.42;0.20;;;;;;;;;;5004209;28;20026;-69
2022/04/07 09:26:30;;;;;;;0.98;0.30;;;;;;;;;;4998504;28;20038;-69
2022/04/07 09:28:56;;;;;;;2.33;0.40;;;;;;;;;;5000397;28;20022;-69
2022/04/07 09:31:22;;;;;;;1.88;0.32;;;;;;;;;;5000233;28;20098;-69
2022/04/07 09:33:54;;;;;;;0.93;0.20;;;;;;;;;;5002801;28;20025;-69
2022/04/07 09:36:21;;;;;;;1.33;0.30;;;;;;;;;;4996667;28;20498;-69
2022/04/07 09:38:50;;;;;;;5.82;0.22;;;;;;;;;;4993101;28;20517;-69
2022/04/07 09:41:17;;;;;;;3.22;0.20;;;;;;;;;;4993190;28;20029;-69
2022/04/07 09:43:50;;;;;;;0.63;0.25;;;;;;;;;;5001178;28;20022;-69
2022/04/07 09:46:16;;;;;;;1.73;0.40;;;;;;;;;;4997590;28;20097;-69
2022/04/07 09:49:00;;;;;;;0.50;0.22;;;;;;;;;;4982740;28;20038;-69
2022/04/07 09:51:29;;;;;;;0.95;0.30;;;;;;;;;;4994649;28;20434;-69
2022/04/07 09:53:57;;;;;;;4.03;0.22;;;;;;;;;;4991946;28;20022;-69
2022/04/07 09:56:27;;;;;;;0.17;0.10;;;;;;;;;;4994401;28;20025;-69
2022/04/07 09:58:53;;;;;;;1.00;0.40;;;;;;;;;;5000801;28;20026;-69
2022/04/07 10:01:18;;;;;;;0.10;0.10;;;;;;;;;;4992281;28;20348;-69
2022/04/07 10:03:43;;;;;;;0.63;0.17;;;;;;;;;;4997513;28;20087;-69
2022/04/07 10:06:09;;;;;;;0.80;0.10;;;;;;;;;;4996605;28;20017;-69
2022/04/07 10:08:34;;;;;;;0.82;0.20;;;;;;;;;;4996836;28;20029;-69
2022/04/07 10:11:00;;;;;;;0.10;0.10;;;;;;;;;;4998948;28;20109;-69
2022/04/07 10:13:25;;;;;;;0.57;0.20;;;;;;;;;;4994275;28;20022;-69
2022/04/07 10:15:51;;;;;;;0.20;0.20;;;;;;;;;;4988743;28;21063;-69
2022/04/07 10:18:19;;;;;;;0.10;0.10;;;;;;;;;;4988765;28;20021;-69
2022/04/07 10:20:47;;;;;;;0.40;0.20;;;;;;;;;;4994518;28;20379;-69
2022/04/07 10:23:32;;;;;;;1.98;0.47;;;;;;;;;;5003036;28;20021;-69
2022/04/07 10:26:03;;;;;;;0.30;0.30;;;;;;;;;;5013913;23;20434;-88
2022/04/07 10:28:29;;;;;;;1.48;0.40;;;;;;;;;;4986567;28;20367;-88
2022/04/07 10:30:54;;;;;;;1.35;0.60;;;;;;;;;;4993782;28;20044;-89
2022/04/07 10:33:46;;;;;;;1.38;0.38;;;;;;;;;;4992081;28;20112;-88
2022/04/07 10:36:18;;;;;;;2.20;0.70;;;;;;;;;;5002748;28;20030;-88
2022/04/07 10:38:46;;;;;;;2.40;1.17;;;;;;;;;;5029633;28;20024;-88
2022/04/07 10:41:11;;;;;;;2.92;0.68;;;;;;;;;;5008239;28;20026;-87
2022/04/07 10:43:40;;;;;;;4.55;0.75;;;;;;;;;;5002991;28;20033;-87
2022/04/07 10:46:16;;;;;;;3.65;0.50;;;;;;;;;;4994068;28;20136;-87
2022/04/07 10:48:46;;;;;;;3.13;0.73;;;;;;;;;;4995691;28;20111;-87
2022/04/07 10:51:13;;;;;;;9.50;1.08;;;;;;;;;;4991947;28;20482;-89
2022/04/07 10:53:39;;;;;;;4.53;1.58;;;;;;;;;;4996811;28;20022;-88
2022/04/07 10:56:34;;;;;;;2.67;0.80;;;;;;;;;;4992648;28;20025;-88
2022/04/07 10:59:21;;;;;;;2.38;0.90;;;;;;;;;;5009456;28;20024;-87
2022/04/07 11:01:46;;;;;;;3.13;1.20;;;;;;;;;;4991125;28;20052;-86
2022/04/07 11:04:20;;;;;;;3.70;0.90;;;;;;;;;;4991354;28;20033;-87
2022/04/07 11:07:04;;;;;;;3.53;0.80;;;;;;;;;;4992370;28;20265;-90
2022/04/07 11:09:42;;;;;;;3.22;0.68;;;;;;;;;;4990866;28;20041;-84
2022/04/07 11:12:08;;;;;;;2.35;0.70;;;;;;;;;;5003933;28;20116;-86
2022/04/07 11:14:34;;;;;;;1.73;0.38;;;;;;;;;;4969640;28;20026;-90
2022/04/07 11:17:04;;;;;;;2.13;0.70;;;;;;;;;;4970278;28;20029;-88
2022/04/07 11:19:50;;;;;;;1.58;0.55;;;;;;;;;;4999135;28;20018;-90
2022/04/07 11:22:17;;;;;;;1.65;0.65;;;;;;;;;;4953288;28;20025;-88
2022/04/07 11:24:43;;;;;;;3.65;2.05;;;;;;;;;;4988349;28;20116;-88
2022/04/07 11:27:27;;;;;;;3.88;0.73;;;;;;;;;;4987526;28;20121;-91
2022/04/07 11:30:07;;;;;;;3.85;0.77;;;;;;;;;;5008419;28;20409;-91
2022/04/07 11:32:32;;;;;;;2.97;0.93;;;;;;;;;;5006518;28;20269;-88
2022/04/07 11:35:10;;;;;;;0.43;0.20;;;;;;;;;;5008428;28;20423;-87
2022/04/07 11:37:38;;;;;;;0.90;0.30;;;;;;;;;;4991272;28;20025;-89
2022/04/07 11:40:03;;;;;;;1.27;0.40;;;;;;;;;;5003786;28;20092;-86
2022/04/07 11:42:32;;;;;;;1.73;0.40;;;;;;;;;;4988721;28;20021;-87
2022/04/07 11:44:58;;;;;;;1.50;0.65;;;;;;;;;;4990145;28;20018;-87
2022/04/07 11:47:25;;;;;;;2.97;0.50;;;;;;;;;;5009718;28;20483;-86
2022/04/07 11:49:50;;;;;;;3.35;0.55;;;;;;;;;;5004983;28;20010;-87
2022/04/07 11:52:16;;;;;;;3.20;0.40;;;;;;;;;;5006553;28;20022;-87
2022/04/07 11:54:42;;;;;;;1.08;0.28;;;;;;;;;;4989026;28;20109;-88
2022/04/07 11:57:10;;;;;;;1.77;0.57;;;;;;;;;;5015032;28;20041;-87
2022/04/07 11:59:36;;;;;;;1.20;0.40;;;;;;;;;;4988519;28;20026;-87
2022/04/07 12:02:02;;;;;;;2.53;0.75;;;;;;;;;;5008318;28;20017;-85
2022/04/07 12:04:30;;;;;;;5.28;1.45;;;;;;;;;;4990884;28;20113;-85
2022/04/07 12:06:59;;;;;;;3.13;0.68;;;;;;;;;;5005859;28;20033;-89
2022/04/07 12:09:24;;;;;;;2.67;0.52;;;;;;;;;;4990457;28;20116;-87
2022/04/07 12:11:49;;;;;;;1.73;0.75;;;;;;;;;;5014199;28;20179;-89
2022/04/07 12:14:15;;;;;;;2.97;0.60;;;;;;;;;;4990939;28;20504;-86
2022/04/07 12:16:49;;;;;;;3.50;0.70;;;;;;;;;;5012834;28;20022;-90
2022/04/07 12:19:30;;;;;;;3.42;0.80;;;;;;;;;;5005526;28;20018;-90
2022/04/07 12:21:57;;;;;;;2.50;0.50;;;;;;;;;;4995032;28;20022;-87
2022/04/07 12:24:23;;;;;;;3.75;0.60;;;;;;;;;;5006634;28;20631;-90
2022/04/07 12:26:49;;;;;;;5.30;1.10;;;;;;;;;;4992476;28;20069;-88
2022/04/07 12:29:22;;;;;;;6.32;1.58;;;;;;;;;;4992161;28;20502;-89
2022/04/07 12:32:06;;;;;;;5.10;1.70;;;;;;;;;;4990599;28;20032;-89
2022/04/07 12:34:32;;;;;;;6.53;1.33;;;;;;;;;;5013701;28;20029;-87
2022/04/07 12:37:01;;;;;;;4.88;0.88;;;;;;;;;;5013086;28;20030;-90
2022/04/07 12:39:31;;;;;;;7.40;1.20;;;;;;;;;;5021339;28;20021;-89
2022/04/07 12:42:02;;;;;;;5.35;0.77;;;;;;;;;;5013389;28;20419;-88
2022/04/07 12:44:43;;;;;;;3.00;0.68;;;;;;;;;;4993204;28;20030;-90
2022/04/07 12:47:16;;;;;;;2.00;0.63;;;;;;;;;;4990643;28;20116;-87
2022/04/07 12:49:53;;;;;;;4.63;0.95;;;;;;;;;;5009986;28;20195;-89
2022/04/07 12:52:19;;;;;;;9.77;1.20;;;;;;;;;;4991629;28;20516;-86
2022/04/07 12:55:17;;;;;;;6.68;0.85;;;;;;;;;;4996989;28;20017;-87
2022/04/07 12:57:43;;;;;;;5.20;0.75;;;;;;;;;;5015831;28;20385;-88
2022/04/07 13:00:10;;;;;;;6.47;1.20;;;;;;;;;;5003625;28;20029;-86
2022/04/07 13:02:44;;;;;;;5.65;1.52;;;;;;;;;;5015998;28;20631;-89
2022/04/07 13:05:13;;;;;;;11.32;0.90;;;;;;;;;;5000226;28;20033;-88
2022/04/07 13:07:39;;;;;;;5.18;1.48;;;;;;;;;;5000178;28;20132;-85
2022/04/07 13:10:04;;;;;;;8.43;1.10;;;;;;;;;;5025561;28;20028;-85
2022/04/07 13:12:32;;;;;;;5.20;1.35;;;;;;;;;;5016392;28;20088;-92
2022/04/07 13:14:57;;;;;;;7.80;1.20;;;;;;;;;;5022001;28;20057;-88
2022/04/07 13:17:23;;;;;;;5.20;1.13;;;;;;;;;;5011314;28;20018;-87
2022/04/07 13:19:54;;;;;;;5.47;1.10;;;;;;;;;;5016800;28;20025;-91
2022/04/07 13:22:21;;;;;;;6.88;1.55;;;;;;;;;;4996992;28;20466;-86
2022/04/07 13:24:46;;;;;;;3.05;1.08;;;;;;;;;;4993251;28;20453;-89
2022/04/07 13:27:12;;;;;;;8.30;1.70;;;;;;;;;;4991348;28;20117;-87
2022/04/07 13:29:37;;;;;;;26.15;1.88;;;;;;;;;;5007168;28;20060;-86
2022/04/07 13:32:03;;;;;;;9.47;1.47;;;;;;;;;;5011933;28;20044;-89
2022/04/07 13:34:28;;;;;;;14.60;1.95;;;;;;;;;;4990931;28;20289;-86
2022/04/07 13:36:53;;;;;;;19.67;1.80;;;;;;;;;;5011567;28;20057;-87
2022/04/07 13:39:20;;;;;;;4.80;1.83;;;;;;;;;;5007236;28;20038;-89
2022/04/07 13:41:45;;;;;;;12.85;2.45;;;;;;;;;;5008807;28;20069;-88
2022/04/07 13:44:10;;;;;;;5.20;1.00;;;;;;;;;;5009320;28;20017;-84
2022/04/07 13:46:42;;;;;;;6.07;1.45;;;;;;;;;;4989418;28;20087;-88
2022/04/07 13:49:07;;;;;;;7.40;1.40;;;;;;;;;;5008732;28;20026;-84
2022/04/07 13:51:33;;;;;;;11.77;1.90;;;;;;;;;;5010917;28;20029;-84
2022/04/07 13:53:58;;;;;;;8.23;2.10;;;;;;;;;;5013732;28;20021;-85
2022/04/07 13:56:23;;;;;;;10.85;1.90;;;;;;;;;;4986673;28;20028;-87
2022/04/07 13:58:51;;;;;;;36.45;3.80;;;;;;;;;;4990033;28;20018;-87
2022/04/07 14:01:20;;;;;;;11.18;2.58;;;;;;;;;;5003698;28;20018;-88
2022/04/07 14:03:45;;;;;;;21.33;1.77;;;;;;;;;;4991011;28;20025;-88
2022/04/07 14:06:10;;;;;;;12.10;2.25;;;;;;;;;;5003317;28;20036;-88
2022/04/07 14:08:36;;;;;;;17.30;2.08;;;;;;;;;;5008050;28;20049;-85
2022/04/07 14:11:04;;;;;;;12.68;2.30;;;;;;;;;;4988956;28;20112;-88
2022/04/07 14:13:30;;;;;;;13.75;3.03;;;;;;;;;;4987291;28;20029;-86
2022/04/07 14:15:55;;;;;;;14.95;1.90;;;;;;;;;;4988891;28;20022;-89
2022/04/07 14:18:21;;;;;;;15.60;2.47;;;;;;;;;;4990741;28;20109;-88
2022/04/07 14:20:46;;;;;;;5.43;2.03;;;;;;;;;;4994450;28;20028;-85
2022/04/07 14:23:12;;;;;;;5.55;1.60;;;;;;;;;;5008066;28;20393;-90
2022/04/07 14:25:38;;;;;;;11.48;1.60;;;;;;;;;;4988277;28;20026;-88
2022/04/07 14:28:04;;;;;;;10.77;1.80;;;;;;;;;;4985939;28;20079;-85
2022/04/07 14:30:29;;;;;;;10.23;2.15;;;;;;;;;;5006879;28;20057;-87
2022/04/07 14:32:54;;;;;;;9.10;1.60;;;;;;;;;;4986430;28;20202;-86
2022/04/07 14:35:20;;;;;;;9.43;1.38;;;;;;;;;;4988431;28;20025;-89
2022/04/07 14:37:45;;;;;;;8.73;1.67;;;;;;;;;;4991390;28;20470;-87
2022/04/07 14:40:11;;;;;;;11.57;1.85;;;;;;;;;;4986835;28;20096;-86
2022/04/07 14:42:36;;;;;;;9.38;1.30;;;;;;;;;;4984498;28;20038;-88